Terminal Aerodrome Forecast
Issued by NWS

Home | Current Version | Previous Version | Text Only | Print | Product List | Glossary Off
Versions: 1 2 3 4 5 6 7 8 9 10 11 12 13 14 15

000
FTUS43 KBIS 290234 AAA
TAFDIK
TAF AMD
KDIK 290234Z 2903/2924 30019G31KT P6SM SCT070
     FM290600 28017G23KT P6SM FEW080 SCT180
     FM291100 27015KT P6SM SKC
     FM291500 29022G32KT P6SM SKC=

USA.gov is the U.S. government's official web portal to all federal, state and local government web resources and services.